createdAt,value
2022-08-28T00:01:05.484Z,22.12
2022-08-28T00:03:33.939Z,22.01
2022-08-28T00:06:02.869Z,22.10
2022-08-28T00:08:33.360Z,22.07
2022-08-28T00:11:02.051Z,22.05
2022-08-28T00:13:30.558Z,22.04
2022-08-28T00:16:02.168Z,22.00
2022-08-28T00:18:31.492Z,21.99
2022-08-28T00:21:01.022Z,21.96
2022-08-28T00:23:35.223Z,21.89
2022-08-28T00:26:34.048Z,21.85
2022-08-28T00:29:01.572Z,21.81
2022-08-28T00:31:30.034Z,21.77
2022-08-28T00:34:02.867Z,21.72
2022-08-28T00:36:31.379Z,21.68
2022-08-28T00:39:00.614Z,21.65
2022-08-28T00:41:31.702Z,21.62
2022-08-28T00:44:13.574Z,21.56
2022-08-28T00:46:44.646Z,21.56
2022-08-28T00:49:15.059Z,21.57
2022-08-28T00:52:00.894Z,21.57
2022-08-28T00:54:30.214Z,21.57
2022-08-28T00:57:01.784Z,21.58
2022-08-28T00:59:30.158Z,21.57
2022-08-28T01:02:10.012Z,21.59
2022-08-28T01:04:40.166Z,21.57
2022-08-28T01:07:13.120Z,21.56
2022-08-28T01:09:44.688Z,21.52
2022-08-28T01:12:17.845Z,21.51
2022-08-28T01:14:48.290Z,21.48
2022-08-28T01:17:18.525Z,21.46
2022-08-28T01:19:55.743Z,21.44
2022-08-28T01:22:32.140Z,21.42
2022-08-28T01:25:05.112Z,21.42
2022-08-28T01:27:33.568Z,21.39
2022-08-28T01:30:02.001Z,21.35
2022-08-28T01:32:35.639Z,21.39
2022-08-28T01:35:05.050Z,21.37
2022-08-28T01:37:33.724Z,21.34
2022-08-28T01:40:04.012Z,21.35
2022-08-28T01:42:32.472Z,21.36
2022-08-28T01:45:00.894Z,21.31
2022-08-28T01:47:29.293Z,21.35
2022-08-28T01:49:57.819Z,21.32
2022-08-28T01:52:26.653Z,21.33
2022-08-28T01:54:55.091Z,21.31
2022-08-28T01:57:27.460Z,21.29
2022-08-28T01:59:56.129Z,21.31
2022-08-28T02:02:25.048Z,21.30
2022-08-28T02:04:54.086Z,21.28
2022-08-28T02:07:22.436Z,21.29
2022-08-28T02:09:51.214Z,21.27
2022-08-28T02:12:20.928Z,21.25
2022-08-28T02:14:50.731Z,21.23
2022-08-28T02:17:19.166Z,21.25
2022-08-28T02:19:47.529Z,21.24
2022-08-28T02:22:15.942Z,21.24
2022-08-28T02:24:44.319Z,21.27
2022-08-28T02:27:12.770Z,21.28
2022-08-28T02:29:41.214Z,21.29
2022-08-28T02:32:11.047Z,21.30
2022-08-28T02:34:40.524Z,21.30
2022-08-28T02:37:10.310Z,21.33
2022-08-28T02:39:39.176Z,21.34
2022-08-28T02:42:08.127Z,21.33
2022-08-28T02:44:36.974Z,21.35
2022-08-28T02:47:06.773Z,21.35
2022-08-28T02:49:36.715Z,21.35
2022-08-28T02:52:06.968Z,21.35
2022-08-28T02:54:38.930Z,21.34
2022-08-28T02:57:08.417Z,21.35
2022-08-28T02:59:36.911Z,21.35
2022-08-28T03:02:07.324Z,21.35
2022-08-28T03:04:38.335Z,21.35
2022-08-28T03:07:09.554Z,21.34
2022-08-28T03:09:40.393Z,21.36
2022-08-28T03:12:10.848Z,21.33
2022-08-28T03:14:39.206Z,21.31
2022-08-28T03:17:07.853Z,21.31
2022-08-28T03:19:37.694Z,21.28
2022-08-28T03:22:06.274Z,21.30
2022-08-28T03:24:34.674Z,21.22
2022-08-28T03:27:03.164Z,21.30
2022-08-28T03:29:32.146Z,21.30
2022-08-28T03:32:00.770Z,21.29
2022-08-28T03:34:29.268Z,21.30
2022-08-28T03:36:59.619Z,21.30
2022-08-28T03:39:28.106Z,21.29
2022-08-28T03:41:56.576Z,21.30
2022-08-28T03:44:25.031Z,21.30
2022-08-28T03:46:53.417Z,21.30
2022-08-28T03:49:22.001Z,21.32
2022-08-28T03:51:51.522Z,21.32
2022-08-28T03:54:21.426Z,21.32
2022-08-28T03:56:49.909Z,21.31
2022-08-28T03:59:18.338Z,21.31
2022-08-28T04:01:46.803Z,21.29
2022-08-28T04:04:15.195Z,21.32
2022-08-28T04:06:43.669Z,21.31
2022-08-28T04:09:12.121Z,21.31
2022-08-28T04:11:43.159Z,21.31
2022-08-28T04:14:11.931Z,21.29
2022-08-28T04:16:40.399Z,21.30
2022-08-28T04:19:08.778Z,21.28
2022-08-28T04:21:37.325Z,21.19
2022-08-28T04:24:09.524Z,21.27
2022-08-28T04:26:38.270Z,21.26
2022-08-28T04:29:08.623Z,21.25
2022-08-28T04:31:37.745Z,21.25
2022-08-28T04:34:08.890Z,21.25
2022-08-28T04:36:38.582Z,21.25
2022-08-28T04:39:09.002Z,21.24
2022-08-28T04:41:38.944Z,21.24
2022-08-28T04:44:09.545Z,21.24
2022-08-28T04:46:38.798Z,21.23
2022-08-28T04:49:07.230Z,21.24
2022-08-28T04:51:38.904Z,21.23
2022-08-28T04:54:11.949Z,21.25
2022-08-28T04:56:41.878Z,21.26
2022-08-28T04:59:11.940Z,21.24
2022-08-28T05:01:42.885Z,21.22
2022-08-28T05:04:12.189Z,21.22
2022-08-28T05:06:46.506Z,21.20
2022-08-28T05:09:16.970Z,21.23
2022-08-28T05:11:45.809Z,21.24
2022-08-28T05:14:17.084Z,21.19
2022-08-28T05:16:47.796Z,21.28
2022-08-28T05:19:17.618Z,21.27
2022-08-28T05:21:46.301Z,21.29
2022-08-28T05:24:14.852Z,21.29
2022-08-28T05:26:43.708Z,21.30
2022-08-28T05:29:18.230Z,21.28
2022-08-28T05:31:47.943Z,21.33
2022-08-28T05:34:16.984Z,21.33
2022-08-28T05:36:45.435Z,21.30
2022-08-28T05:39:14.949Z,21.29
2022-08-28T05:41:45.608Z,21.31
2022-08-28T05:44:15.476Z,21.35
2022-08-28T05:46:48.349Z,21.36
2022-08-28T05:49:18.592Z,21.35
2022-08-28T05:51:47.742Z,21.37
2022-08-28T05:54:17.068Z,21.38
2022-08-28T05:56:47.338Z,21.42
2022-08-28T05:59:17.181Z,21.44
2022-08-28T06:01:49.104Z,21.47
2022-08-28T06:04:19.921Z,21.47
2022-08-28T06:06:49.645Z,21.37
2022-08-28T06:09:26.549Z,21.46
2022-08-28T06:11:58.945Z,21.49
2022-08-28T06:14:28.593Z,21.52
2022-08-28T06:16:59.947Z,21.55
2022-08-28T06:19:29.699Z,21.55
2022-08-28T06:22:00.515Z,21.58
2022-08-28T06:24:30.519Z,21.61
2022-08-28T06:26:59.743Z,21.63
2022-08-28T06:29:29.514Z,21.67
2022-08-28T06:32:01.613Z,21.66
2022-08-28T06:34:30.754Z,21.69
2022-08-28T06:36:59.543Z,21.69
2022-08-28T06:39:27.922Z,21.69
2022-08-28T06:41:56.403Z,21.77
2022-08-28T06:44:24.901Z,21.78
2022-08-28T06:46:55.845Z,21.79
2022-08-28T06:49:25.711Z,21.82
2022-08-28T06:51:54.108Z,21.83
2022-08-28T06:54:23.680Z,21.86
2022-08-28T06:56:52.524Z,21.91
2022-08-28T06:59:21.124Z,21.95
2022-08-28T07:01:49.752Z,21.98
2022-08-28T07:04:18.401Z,22.01
2022-08-28T07:06:54.843Z,22.03
2022-08-28T07:09:24.472Z,22.03
2022-08-28T07:11:53.412Z,22.02
2022-08-28T07:14:21.859Z,22.05
2022-08-28T07:16:50.634Z,22.10
2022-08-28T07:19:20.388Z,22.16
2022-08-28T07:21:50.327Z,22.21
2022-08-28T07:24:19.005Z,22.21
2022-08-28T07:26:48.610Z,22.21
2022-08-28T07:29:17.319Z,22.16
2022-08-28T07:31:49.715Z,22.11
2022-08-28T07:34:20.197Z,22.10
2022-08-28T07:36:52.142Z,22.12
2022-08-28T07:39:20.890Z,22.13
2022-08-28T07:41:50.580Z,22.11
2022-08-28T07:44:36.149Z,22.27
2022-08-28T07:47:08.847Z,22.28
2022-08-28T07:49:37.492Z,22.33
2022-08-28T07:52:08.813Z,22.39
2022-08-28T07:54:40.601Z,22.40
2022-08-28T07:57:11.063Z,22.44
2022-08-28T07:59:43.123Z,22.55
2022-08-28T08:02:12.043Z,22.54
2022-08-28T08:04:40.849Z,22.58
2022-08-28T08:07:13.085Z,22.60
2022-08-28T08:09:43.316Z,22.58
2022-08-28T08:12:12.787Z,22.59
2022-08-28T08:14:42.640Z,22.61
2022-08-28T08:17:12.346Z,22.66
2022-08-28T08:19:41.144Z,22.75
2022-08-28T08:22:11.140Z,22.75
2022-08-28T08:24:39.594Z,22.77
2022-08-28T08:27:08.241Z,22.80
2022-08-28T08:29:39.034Z,22.83
2022-08-28T08:32:10.509Z,22.85
2022-08-28T08:34:41.793Z,22.96
2022-08-28T08:37:12.922Z,23.04
2022-08-28T08:39:42.986Z,23.08
2022-08-28T08:42:22.492Z,23.19
2022-08-28T08:44:52.399Z,23.18
2022-08-28T08:47:24.426Z,23.26
2022-08-28T08:49:56.146Z,23.33
2022-08-28T08:52:36.531Z,23.43
2022-08-28T08:55:20.561Z,23.43
2022-08-28T08:57:54.898Z,23.41
2022-08-28T09:00:23.552Z,23.49
2022-08-28T09:03:00.794Z,23.53
2022-08-28T09:05:50.320Z,23.57
2022-08-28T09:08:35.634Z,23.66
2022-08-28T09:11:16.705Z,23.67
2022-08-28T09:13:53.788Z,23.73
2022-08-28T09:16:31.362Z,23.83
2022-08-28T09:19:01.136Z,23.89
2022-08-28T09:21:32.072Z,23.80
2022-08-28T09:24:07.294Z,23.78
2022-08-28T09:26:40.492Z,23.87
2022-08-28T09:29:16.918Z,23.95
2022-08-28T09:31:45.769Z,23.96
2022-08-28T09:34:28.770Z,24.00
2022-08-28T09:36:58.768Z,24.09
2022-08-28T09:39:31.034Z,24.13
2022-08-28T09:42:35.040Z,24.20
2022-08-28T09:45:09.172Z,24.16
2022-08-28T09:47:48.971Z,24.08
2022-08-28T09:50:24.577Z,24.07
2022-08-28T09:52:55.742Z,24.13
2022-08-28T09:55:35.022Z,24.24
2022-08-28T09:58:04.344Z,24.30
2022-08-28T10:00:38.322Z,24.49
2022-08-28T10:03:15.939Z,24.57
2022-08-28T10:05:53.123Z,24.60
2022-08-28T10:08:32.796Z,24.61
2022-08-28T10:11:11.706Z,24.70
2022-08-28T10:13:48.316Z,24.74
2022-08-28T10:16:24.908Z,24.78
2022-08-28T10:18:59.601Z,24.69
2022-08-28T10:21:34.818Z,24.74
2022-08-28T10:24:28.388Z,24.76
2022-08-28T10:27:09.734Z,24.64
2022-08-28T10:29:50.905Z,24.58
2022-08-28T10:32:35.798Z,24.51
2022-08-28T10:35:12.084Z,24.48
2022-08-28T10:37:52.435Z,24.32
2022-08-28T10:40:27.687Z,24.36
2022-08-28T10:43:04.447Z,24.51
2022-08-28T10:45:34.989Z,24.47
2022-08-28T10:48:11.621Z,24.48
2022-08-28T10:50:45.432Z,24.43
2022-08-28T10:53:18.396Z,24.52
2022-08-28T10:55:55.546Z,24.57
2022-08-28T10:58:27.685Z,24.56
2022-08-28T11:01:01.366Z,24.57
2022-08-28T11:03:35.058Z,24.57
2022-08-28T11:06:10.322Z,24.59
2022-08-28T11:08:40.942Z,24.43
2022-08-28T11:11:15.089Z,24.40
2022-08-28T11:13:57.509Z,24.32
2022-08-28T11:16:37.072Z,24.32
2022-08-28T11:19:31.176Z,24.40
2022-08-28T11:22:09.619Z,24.45
2022-08-28T11:25:01.776Z,24.52
2022-08-28T11:27:34.033Z,24.54
2022-08-28T11:30:31.474Z,24.49
2022-08-28T11:33:30.832Z,24.40
2022-08-28T11:35:59.252Z,24.27
2022-08-28T11:39:13.354Z,24.18
2022-08-28T11:42:25.469Z,23.98
2022-08-28T11:44:53.993Z,24.01
2022-08-28T11:47:46.086Z,23.99
2022-08-28T11:50:20.691Z,24.02
2022-08-28T11:53:16.114Z,24.06
2022-08-28T11:56:14.018Z,24.03
2022-08-28T11:59:01.006Z,23.95
2022-08-28T12:01:37.628Z,23.95
2022-08-28T12:04:09.722Z,24.01
2022-08-28T12:06:54.650Z,24.08
2022-08-28T12:09:42.736Z,24.20
2022-08-28T12:12:30.275Z,24.24
2022-08-28T12:15:01.141Z,24.26
2022-08-28T12:17:46.708Z,24.24
2022-08-28T12:20:46.082Z,24.28
2022-08-28T12:23:38.543Z,24.41
2022-08-28T12:26:10.916Z,24.40
2022-08-28T12:28:46.538Z,24.39
2022-08-28T12:32:13.981Z,24.42
2022-08-28T12:34:50.205Z,24.29
2022-08-28T12:37:29.078Z,24.37
2022-08-28T12:40:03.413Z,24.29
2022-08-28T12:42:33.894Z,24.16
2022-08-28T12:45:05.524Z,24.07
2022-08-28T12:47:35.980Z,24.07
2022-08-28T12:50:21.484Z,24.06
2022-08-28T12:52:53.635Z,24.08
2022-08-28T12:55:24.565Z,24.05
2022-08-28T12:57:54.025Z,24.04
2022-08-28T13:00:25.759Z,23.97
2022-08-28T13:02:56.312Z,24.01
2022-08-28T13:05:31.315Z,23.89
2022-08-28T13:08:04.726Z,23.91
2022-08-28T13:10:38.245Z,23.87
2022-08-28T13:13:11.140Z,23.90
2022-08-28T13:15:52.537Z,23.95
2022-08-28T13:18:59.542Z,23.96
2022-08-28T13:21:35.530Z,24.01
2022-08-28T13:24:28.907Z,23.88
2022-08-28T13:27:07.792Z,23.74
2022-08-28T13:29:37.487Z,23.64
2022-08-28T13:32:08.904Z,23.42
2022-08-28T13:34:47.607Z,23.38
2022-08-28T13:37:41.902Z,23.20
2022-08-28T13:40:30.272Z,23.18
2022-08-28T13:43:07.214Z,23.14
2022-08-28T13:45:42.326Z,23.08
2022-08-28T13:48:13.489Z,22.98
2022-08-28T13:50:46.747Z,22.86
2022-08-28T13:53:17.470Z,22.81
2022-08-28T13:55:49.758Z,22.59
2022-08-28T13:58:18.308Z,22.40
2022-08-28T14:00:50.354Z,22.21
2022-08-28T14:03:36.793Z,22.09
2022-08-28T14:06:07.471Z,22.00
2022-08-28T14:08:36.239Z,21.88
2022-08-28T14:11:07.476Z,21.80
2022-08-28T14:13:36.970Z,21.73
2022-08-28T14:16:08.120Z,21.70
2022-08-28T14:18:37.331Z,21.75
2022-08-28T14:21:07.851Z,21.81
2022-08-28T14:23:36.241Z,21.64
2022-08-28T14:26:07.876Z,21.54
2022-08-28T14:28:36.431Z,21.43
2022-08-28T14:31:11.081Z,21.28
2022-08-28T14:33:45.443Z,21.23
2022-08-28T14:36:17.541Z,21.19
2022-08-28T14:38:46.095Z,21.14
2022-08-28T14:41:17.761Z,21.14
2022-08-28T14:43:46.571Z,21.07
2022-08-28T14:46:19.811Z,21.18
2022-08-28T14:48:48.419Z,21.40
2022-08-28T14:51:19.372Z,21.46
2022-08-28T14:53:48.252Z,21.59
2022-08-28T14:56:18.300Z,21.69
2022-08-28T14:58:46.772Z,21.76
2022-08-28T15:01:23.935Z,21.76
2022-08-28T15:03:53.396Z,21.73
2022-08-28T15:06:21.853Z,21.73
2022-08-28T15:08:50.257Z,21.74
2022-08-28T15:11:22.316Z,21.76
2022-08-28T15:13:52.601Z,21.67
2022-08-28T15:16:24.699Z,21.62
2022-08-28T15:18:57.486Z,21.76
2022-08-28T15:21:28.973Z,21.73
2022-08-28T15:23:58.248Z,21.68
2022-08-28T15:26:28.996Z,21.63
2022-08-28T15:29:02.493Z,21.66
2022-08-28T15:31:31.631Z,21.54
2022-08-28T15:34:03.963Z,21.42
2022-08-28T15:36:36.640Z,21.48
2022-08-28T15:39:23.913Z,21.47
2022-08-28T15:41:54.254Z,21.42
2022-08-28T15:44:22.677Z,21.27
2022-08-28T15:46:54.316Z,21.35
2022-08-28T15:49:23.997Z,21.31
2022-08-28T15:51:53.157Z,21.07
2022-08-28T15:54:22.929Z,20.83
2022-08-28T15:56:53.885Z,20.80
2022-08-28T15:59:24.869Z,20.76
2022-08-28T16:02:12.890Z,20.73
2022-08-28T16:04:41.343Z,20.57
2022-08-28T16:07:09.726Z,20.59
2022-08-28T16:09:38.241Z,20.52
2022-08-28T16:12:07.011Z,20.58
2022-08-28T16:14:36.857Z,20.58
2022-08-28T16:17:05.815Z,20.62
2022-08-28T16:19:39.324Z,20.64
2022-08-28T16:22:07.743Z,20.59
2022-08-28T16:24:36.269Z,20.67
2022-08-28T16:27:06.485Z,20.54
2022-08-28T16:29:39.934Z,20.44
2022-08-28T16:32:08.474Z,20.49
2022-08-28T16:34:37.075Z,20.48
2022-08-28T16:37:05.958Z,20.41
2022-08-28T16:39:37.131Z,20.42
2022-08-28T16:42:05.929Z,20.50
2022-08-28T16:44:35.105Z,20.54
2022-08-28T16:47:05.641Z,20.55
2022-08-28T16:49:34.183Z,20.62
2022-08-28T16:52:02.571Z,20.61
2022-08-28T16:54:30.944Z,20.69
2022-08-28T16:56:59.404Z,20.68
2022-08-28T16:59:27.775Z,20.67
2022-08-28T17:01:56.623Z,20.69
2022-08-28T17:04:27.207Z,20.57
2022-08-28T17:06:56.109Z,20.43
2022-08-28T17:09:25.523Z,20.48
2022-08-28T17:11:53.893Z,20.52
2022-08-28T17:14:22.677Z,20.54
2022-08-28T17:16:52.204Z,20.51
2022-08-28T17:19:23.429Z,20.48
2022-08-28T17:22:10.783Z,20.45
2022-08-28T17:24:40.173Z,20.38
2022-08-28T17:27:08.979Z,20.38
2022-08-28T17:29:38.967Z,20.35
2022-08-28T17:32:08.198Z,20.35
2022-08-28T17:34:37.367Z,20.39
2022-08-28T17:37:07.251Z,20.34
2022-08-28T17:39:36.237Z,20.33
2022-08-28T17:42:05.181Z,20.43
2022-08-28T17:44:33.566Z,20.40
2022-08-28T17:47:02.044Z,20.28
2022-08-28T17:49:30.542Z,20.28
2022-08-28T17:51:59.171Z,20.30
2022-08-28T17:54:29.073Z,20.28
2022-08-28T17:56:58.348Z,20.30
2022-08-28T17:59:27.990Z,20.30
2022-08-28T18:01:56.558Z,20.19
2022-08-28T18:04:25.051Z,20.21
2022-08-28T18:06:54.942Z,20.15
2022-08-28T18:09:25.249Z,20.13
2022-08-28T18:11:55.519Z,20.13
2022-08-28T18:14:24.116Z,20.18
2022-08-28T18:16:52.657Z,20.18
2022-08-28T18:19:21.379Z,20.15
2022-08-28T18:21:49.778Z,20.10
2022-08-28T18:24:18.196Z,20.10
2022-08-28T18:26:47.576Z,20.02
2022-08-28T18:29:17.567Z,20.12
2022-08-28T18:31:46.028Z,20.14
2022-08-28T18:34:14.763Z,20.19
2022-08-28T18:36:43.129Z,20.29
2022-08-28T18:39:12.151Z,20.34
2022-08-28T18:41:43.167Z,20.41
2022-08-28T18:44:14.464Z,20.37
2022-08-28T18:46:45.274Z,20.32
2022-08-28T18:49:14.368Z,20.41
2022-08-28T18:51:44.276Z,20.45
2022-08-28T18:54:13.640Z,20.35
2022-08-28T18:56:45.410Z,20.41
2022-08-28T18:59:13.828Z,20.33
2022-08-28T19:01:43.963Z,20.32
2022-08-28T19:04:12.615Z,20.42
2022-08-28T19:06:42.685Z,20.41
2022-08-28T19:09:20.625Z,20.36
2022-08-28T19:11:49.464Z,20.40
2022-08-28T19:14:18.013Z,20.43
2022-08-28T19:16:48.083Z,20.45
2022-08-28T19:19:16.881Z,20.37
2022-08-28T19:21:46.438Z,20.38
2022-08-28T19:24:17.881Z,20.41
2022-08-28T19:26:46.799Z,20.41
2022-08-28T19:29:15.242Z,20.35
2022-08-28T19:31:44.312Z,20.35
2022-08-28T19:34:14.534Z,20.34
2022-08-28T19:36:43.124Z,20.27
2022-08-28T19:39:11.626Z,20.23
2022-08-28T19:41:40.236Z,20.20
2022-08-28T19:44:09.320Z,20.11
2022-08-28T19:46:38.375Z,20.14
2022-08-28T19:49:07.917Z,20.11
2022-08-28T19:51:39.276Z,20.08
2022-08-28T19:54:11.341Z,20.08
2022-08-28T19:56:40.153Z,20.15
2022-08-28T19:59:09.145Z,20.19
2022-08-28T20:01:39.569Z,20.19
2022-08-28T20:04:09.482Z,20.12
2022-08-28T20:06:39.442Z,20.18
2022-08-28T20:09:12.534Z,20.14
2022-08-28T20:11:42.384Z,20.14
2022-08-28T20:14:10.793Z,20.11
2022-08-28T20:16:42.133Z,20.14
2022-08-28T20:19:12.410Z,20.12
2022-08-28T20:21:45.452Z,20.19
2022-08-28T20:24:17.736Z,20.15
2022-08-28T20:26:46.115Z,20.15
2022-08-28T20:29:15.195Z,20.10
2022-08-28T20:31:47.462Z,20.01
2022-08-28T20:34:18.411Z,20.00
2022-08-28T20:36:48.589Z,19.90
2022-08-28T20:39:18.200Z,19.97
2022-08-28T20:41:48.368Z,20.02
2022-08-28T20:44:20.667Z,19.99
2022-08-28T20:46:54.903Z,20.04
2022-08-28T20:49:24.586Z,20.03
2022-08-28T20:52:06.056Z,20.02
2022-08-28T20:54:41.564Z,20.03
2022-08-28T20:57:16.448Z,19.95
2022-08-28T20:59:49.066Z,19.91
2022-08-28T21:02:21.777Z,20.07
2022-08-28T21:04:57.224Z,20.16
2022-08-28T21:07:29.632Z,20.22
2022-08-28T21:10:07.226Z,20.18
2022-08-28T21:12:38.905Z,20.23
2022-08-28T21:15:12.375Z,20.10
2022-08-28T21:17:43.035Z,19.99
2022-08-28T21:20:16.297Z,19.84
2022-08-28T21:22:49.047Z,19.80
2022-08-28T21:25:23.299Z,19.68
2022-08-28T21:27:55.865Z,19.66
2022-08-28T21:33:25.107Z,19.69
2022-08-28T21:35:59.514Z,19.65
2022-08-28T21:38:32.617Z,19.62
2022-08-28T21:41:04.868Z,19.57
2022-08-28T21:43:36.896Z,19.54
2022-08-28T21:46:08.671Z,19.51
2022-08-28T21:48:42.293Z,19.47
2022-08-28T21:51:14.654Z,19.43
2022-08-28T21:53:49.193Z,19.44
2022-08-28T21:56:21.706Z,19.42
2022-08-28T21:58:58.367Z,19.38
2022-08-28T22:01:29.510Z,19.35
2022-08-28T22:04:03.261Z,19.40
2022-08-28T22:06:33.481Z,19.33
2022-08-28T22:09:11.222Z,19.33
2022-08-28T22:11:45.910Z,19.26
2022-08-28T22:14:16.592Z,19.34
2022-08-28T22:16:50.678Z,19.41
2022-08-28T22:19:21.195Z,19.40
2022-08-28T22:22:13.422Z,19.42
2022-08-28T22:24:44.689Z,19.21
2022-08-28T22:27:17.274Z,19.12
2022-08-28T22:29:50.021Z,19.23
2022-08-28T22:32:28.685Z,19.24
2022-08-28T22:34:59.050Z,19.29
2022-08-28T22:37:33.613Z,19.34
2022-08-28T22:40:13.203Z,19.37
2022-08-28T22:42:49.157Z,19.34
2022-08-28T22:45:19.706Z,19.28
2022-08-28T22:50:46.496Z,19.31
2022-08-28T22:53:23.045Z,19.41
2022-08-28T22:58:49.430Z,19.51
2022-08-28T23:01:27.937Z,19.48
2022-08-28T23:03:58.629Z,19.39
2022-08-28T23:06:30.248Z,19.30
2022-08-28T23:09:00.702Z,19.25
2022-08-28T23:11:34.598Z,19.19
2022-08-28T23:14:04.963Z,19.22
2022-08-28T23:16:39.883Z,19.21
2022-08-28T23:19:13.148Z,19.21
2022-08-28T23:21:45.655Z,19.14
2022-08-28T23:24:19.317Z,19.11
2022-08-28T23:26:50.979Z,19.02
2022-08-28T23:29:23.360Z,18.94
2022-08-28T23:31:53.805Z,18.99
2022-08-28T23:34:28.197Z,19.04
2022-08-28T23:36:58.939Z,19.01
2022-08-28T23:39:34.186Z,18.88
2022-08-28T23:42:10.190Z,18.86
2022-08-28T23:44:46.194Z,18.83
2022-08-28T23:47:22.242Z,18.76
2022-08-28T23:49:52.275Z,18.75
2022-08-28T23:52:25.097Z,18.77
2022-08-28T23:54:59.670Z,18.76
2022-08-28T23:57:32.281Z,18.71
